Time;durP1;ratioP1;P1;durP2;ratioP2;P2;SDS_P1;SDS_P2;PMS_P1;PMS_P2;Temp;Humidity;BMP_temperature;BMP_pressure;BME280_temperature;BME280_humidity;BME280_pressure;Samples;Min_cycle;Max_cycle;Signal;HPM_P1;HPM_P2
2021/07/07 00:00:55;;;;;;;9.15;5.28;;;16.30;99.90;;;;;;4978085;28;20133;-80
2021/07/07 00:03:24;;;;;;;8.68;5.40;;;16.30;99.90;;;;;;4978536;28;20134;-79
2021/07/07 00:05:50;;;;;;;11.23;5.50;;;16.40;99.90;;;;;;4978804;28;20485;-80
2021/07/07 00:08:17;;;;;;;10.20;5.38;;;16.40;99.90;;;;;;4978538;28;20054;-79
2021/07/07 00:10:44;;;;;;;10.82;5.40;;;16.40;99.90;;;;;;4977986;28;20054;-79
2021/07/07 00:13:12;;;;;;;11.45;5.18;;;16.40;99.90;;;;;;4975345;28;20159;-78
2021/07/07 00:15:39;;;;;;;9.50;5.32;;;16.30;99.90;;;;;;4975957;28;20061;-79
2021/07/07 00:18:08;;;;;;;13.52;5.68;;;16.30;99.90;;;;;;4976384;28;20075;-79
2021/07/07 00:20:39;;;;;;;11.50;5.00;;;16.30;99.90;;;;;;4978858;28;20542;-80
2021/07/07 00:23:06;;;;;;;11.32;5.68;;;16.30;99.90;;;;;;4978519;28;20101;-79
2021/07/07 00:25:33;;;;;;;9.85;5.78;;;16.30;99.90;;;;;;4978573;28;20133;-78
2021/07/07 00:28:00;;;;;;;16.02;5.70;;;16.40;99.90;;;;;;4978216;28;20051;-80
2021/07/07 00:30:27;;;;;;;12.13;5.38;;;16.40;99.90;;;;;;4979445;28;20129;-80
2021/07/07 00:32:54;;;;;;;10.27;5.28;;;16.40;99.90;;;;;;4980016;28;20078;-79
2021/07/07 00:35:21;;;;;;;14.30;5.55;;;16.40;99.90;;;;;;4980052;28;20089;-80
2021/07/07 00:37:49;;;;;;;9.38;5.00;;;16.40;99.90;;;;;;4976989;28;20130;-79
2021/07/07 00:40:17;;;;;;;13.20;5.28;;;16.30;99.90;;;;;;4980265;28;20079;-79
2021/07/07 00:42:44;;;;;;;9.95;5.03;;;16.30;99.90;;;;;;4982521;28;20085;-80
2021/07/07 00:45:12;;;;;;;9.35;5.47;;;16.20;99.90;;;;;;4977853;28;20122;-80
2021/07/07 00:47:39;;;;;;;10.48;5.13;;;16.10;99.90;;;;;;4979582;28;20431;-80
2021/07/07 00:50:08;;;;;;;12.45;5.80;;;16.10;99.90;;;;;;4979800;28;20082;-79
2021/07/07 00:52:35;;;;;;;12.70;6.30;;;16.10;99.90;;;;;;4981099;28;20546;-79
2021/07/07 00:55:06;;;;;;;13.13;5.70;;;16.00;99.90;;;;;;4981363;28;20102;-79
2021/07/07 00:57:35;;;;;;;9.45;5.53;;;15.90;99.90;;;;;;4980379;28;20153;-79
2021/07/07 01:00:05;;;;;;;12.73;5.60;;;15.70;99.90;;;;;;4980657;28;20081;-79
2021/07/07 01:02:36;;;;;;;14.50;5.43;;;15.70;99.90;;;;;;4980651;28;20133;-79
2021/07/07 01:05:03;;;;;;;11.77;5.70;;;15.70;99.90;;;;;;4980290;28;20082;-79
2021/07/07 01:07:30;;;;;;;12.65;5.53;;;15.60;99.90;;;;;;4981093;28;20078;-79
2021/07/07 01:09:57;;;;;;;11.80;5.50;;;15.60;99.90;;;;;;4981229;28;20491;-79
2021/07/07 01:12:27;;;;;;;10.25;5.07;;;15.60;99.90;;;;;;4981278;28;20092;-78
2021/07/07 01:14:55;;;;;;;9.48;5.15;;;15.50;99.90;;;;;;4979767;28;20050;-79
2021/07/07 01:17:23;;;;;;;16.33;5.70;;;15.40;99.90;;;;;;4978966;28;20078;-79
2021/07/07 01:19:50;;;;;;;17.63;5.88;;;15.40;99.90;;;;;;4979942;28;20074;-78
2021/07/07 01:22:19;;;;;;;12.70;5.70;;;15.40;99.90;;;;;;4977349;28;20073;-78
2021/07/07 01:24:45;;;;;;;13.27;5.95;;;15.30;99.90;;;;;;4975654;28;20175;-78
2021/07/07 01:27:12;;;;;;;12.15;5.65;;;15.30;99.90;;;;;;4976872;28;20101;-79
2021/07/07 01:29:39;;;;;;;10.25;5.80;;;15.20;99.90;;;;;;4977463;28;20125;-78
2021/07/07 01:32:06;;;;;;;8.90;5.22;;;15.20;99.90;;;;;;4977323;28;20050;-78
2021/07/07 01:34:33;;;;;;;12.57;5.53;;;15.30;99.90;;;;;;4978369;28;20134;-78
2021/07/07 01:37:00;;;;;;;15.60;5.53;;;15.40;99.90;;;;;;4981957;28;20133;-78
2021/07/07 01:39:28;;;;;;;10.38;5.88;;;15.40;99.90;;;;;;4979050;28;20150;-79
2021/07/07 01:41:55;;;;;;;10.75;5.68;;;15.40;99.90;;;;;;4979289;28;20432;-79
2021/07/07 01:44:22;;;;;;;11.68;5.70;;;15.40;99.90;;;;;;4981214;28;20519;-79
2021/07/07 01:46:49;;;;;;;13.27;6.03;;;15.40;99.90;;;;;;4984221;28;20082;-78
2021/07/07 01:49:16;;;;;;;12.00;6.13;;;15.40;99.90;;;;;;4983433;28;20138;-79
2021/07/07 01:51:43;;;;;;;12.85;5.60;;;15.40;99.90;;;;;;4983224;28;20082;-80
2021/07/07 01:54:10;;;;;;;9.73;5.25;;;15.30;99.90;;;;;;4982868;28;20082;-79
2021/07/07 01:56:38;;;;;;;11.45;5.95;;;15.30;99.90;;;;;;4977008;28;20047;-80
2021/07/07 01:59:05;;;;;;;14.85;6.00;;;15.40;99.90;;;;;;4977458;28;20464;-78
2021/07/07 02:01:32;;;;;;;10.95;5.80;;;15.40;99.90;;;;;;4979463;28;20057;-79
2021/07/07 02:03:59;;;;;;;10.73;5.82;;;15.40;99.90;;;;;;4980965;28;20070;-79
2021/07/07 02:06:27;;;;;;;16.63;5.78;;;15.40;99.90;;;;;;4980402;28;20134;-78
2021/07/07 02:08:54;;;;;;;12.30;5.78;;;15.40;99.90;;;;;;4982075;28;20314;-79
2021/07/07 02:11:21;;;;;;;17.10;6.32;;;15.30;99.90;;;;;;4980649;28;20057;-80
2021/07/07 02:13:49;;;;;;;11.52;6.05;;;15.20;99.90;;;;;;4984340;28;20122;-80
2021/07/07 02:16:16;;;;;;;12.68;5.78;;;15.20;99.90;;;;;;4983772;28;20089;-82
2021/07/07 02:18:43;;;;;;;13.40;6.60;;;15.20;99.90;;;;;;4979769;28;20480;-80
2021/07/07 02:21:10;;;;;;;10.35;6.28;;;15.20;99.90;;;;;;4977379;28;20114;-81
2021/07/07 02:23:37;;;;;;;12.75;6.65;;;15.10;99.90;;;;;;4977392;28;20300;-80
2021/07/07 02:26:04;;;;;;;13.27;6.40;;;15.10;99.90;;;;;;4976703;28;20110;-79
2021/07/07 02:28:31;;;;;;;15.00;6.20;;;15.10;99.90;;;;;;4976192;28;20168;-79
2021/07/07 02:30:59;;;;;;;15.70;6.20;;;15.10;99.90;;;;;;4979619;28;20095;-80
2021/07/07 02:33:27;;;;;;;15.43;6.03;;;15.10;99.90;;;;;;4979483;28;20090;-79
2021/07/07 02:35:55;;;;;;;12.32;5.70;;;15.10;99.90;;;;;;4980529;28;20515;-80
2021/07/07 02:38:23;;;;;;;15.00;7.03;;;15.00;99.90;;;;;;4981405;28;20134;-80
2021/07/07 02:40:53;;;;;;;12.98;6.18;;;14.90;99.90;;;;;;4981772;28;20464;-80
2021/07/07 02:43:20;;;;;;;12.57;6.15;;;14.90;99.90;;;;;;4981652;28;20051;-80
2021/07/07 02:45:47;;;;;;;12.95;6.22;;;14.90;99.90;;;;;;4981880;28;20089;-81
2021/07/07 02:48:15;;;;;;;14.88;6.30;;;14.90;99.90;;;;;;4982140;28;20550;-79
2021/07/07 02:50:44;;;;;;;12.75;5.95;;;14.90;99.90;;;;;;4982340;28;20074;-80
2021/07/07 02:53:12;;;;;;;11.43;6.07;;;14.90;99.90;;;;;;4982929;28;20086;-80
2021/07/07 02:55:39;;;;;;;10.00;5.97;;;14.90;99.90;;;;;;4984636;28;20134;-80
2021/07/07 02:58:06;;;;;;;13.57;5.82;;;14.90;99.90;;;;;;4988459;28;20479;-81
2021/07/07 03:00:34;;;;;;;11.43;5.93;;;14.90;99.90;;;;;;4995633;28;20046;-81
2021/07/07 03:03:03;;;;;;;9.40;5.35;;;14.90;99.90;;;;;;4995245;28;20299;-80
2021/07/07 03:05:34;;;;;;;13.95;5.88;;;14.90;99.90;;;;;;4978965;28;20491;-79
2021/07/07 03:08:02;;;;;;;13.57;5.78;;;14.90;99.90;;;;;;4980334;28;20093;-79
2021/07/07 03:10:29;;;;;;;10.23;5.80;;;14.90;99.90;;;;;;4978635;28;20111;-79
2021/07/07 03:12:56;;;;;;;13.43;5.50;;;14.90;99.90;;;;;;4978486;28;20106;-80
2021/07/07 03:15:25;;;;;;;15.82;5.80;;;15.00;99.90;;;;;;4979583;28;20054;-79
2021/07/07 03:17:52;;;;;;;15.98;5.63;;;15.00;99.90;;;;;;4978377;28;20051;-77
2021/07/07 03:20:19;;;;;;;9.30;4.85;;;15.00;99.90;;;;;;4975481;28;20051;-77
2021/07/07 03:22:47;;;;;;;12.57;5.32;;;15.00;99.90;;;;;;4975354;28;20047;-78
2021/07/07 03:25:15;;;;;;;11.15;5.60;;;15.00;99.90;;;;;;4974987;28;20134;-77
2021/07/07 03:27:42;;;;;;;14.23;5.57;;;15.00;99.90;;;;;;4975435;28;20533;-79
2021/07/07 03:30:10;;;;;;;15.18;5.43;;;15.00;99.90;;;;;;4975200;28;20147;-77
2021/07/07 03:32:37;;;;;;;9.65;4.85;;;14.90;99.90;;;;;;4975042;28;20138;-77
2021/07/07 03:35:05;;;;;;;11.88;5.88;;;14.90;99.90;;;;;;4975109;28;20070;-78
2021/07/07 03:37:32;;;;;;;13.70;5.22;;;14.90;99.90;;;;;;4975009;28;20138;-77
2021/07/07 03:40:00;;;;;;;13.57;5.43;;;15.00;99.90;;;;;;4974654;28;20138;-77
2021/07/07 03:42:27;;;;;;;9.68;5.68;;;15.00;99.90;;;;;;4974357;28;20142;-75
2021/07/07 03:44:54;;;;;;;15.30;5.15;;;15.10;99.90;;;;;;4974348;28;20078;-78
2021/07/07 03:47:21;;;;;;;7.93;4.75;;;15.10;99.90;;;;;;4974634;28;20522;-77
2021/07/07 03:49:49;;;;;;;11.60;5.00;;;15.10;99.90;;;;;;4974705;28;20437;-77
2021/07/07 03:52:16;;;;;;;12.32;5.07;;;15.10;99.90;;;;;;4974607;28;20057;-77
2021/07/07 03:54:43;;;;;;;16.25;5.55;;;15.20;99.90;;;;;;4974364;28;20110;-77
2021/07/07 03:57:11;;;;;;;12.35;5.50;;;15.20;99.90;;;;;;4974546;28;20486;-77
2021/07/07 03:59:38;;;;;;;11.57;5.10;;;15.30;99.90;;;;;;4974260;28;20581;-77
2021/07/07 04:02:05;;;;;;;9.95;5.13;;;15.30;99.90;;;;;;5024775;23;20065;-79
2021/07/07 04:04:32;;;;;;;12.73;5.25;;;15.30;99.90;;;;;;5033879;28;20536;-80
2021/07/07 04:06:59;;;;;;;8.60;4.95;;;15.40;99.90;;;;;;5043194;28;20053;-79
2021/07/07 04:09:28;;;;;;;11.80;5.45;;;15.50;99.90;;;;;;5039046;28;20049;-80
2021/07/07 04:11:55;;;;;;;15.43;5.28;;;15.60;99.90;;;;;;5037714;28;20050;-81
2021/07/07 04:14:24;;;;;;;16.35;4.90;;;15.80;99.90;;;;;;5036914;28;20042;-81
2021/07/07 04:16:52;;;;;;;10.02;5.13;;;16.00;99.90;;;;;;5036446;28;20140;-81
2021/07/07 04:19:20;;;;;;;9.95;4.40;;;16.40;99.90;;;;;;5037068;28;20473;-81
2021/07/07 04:21:48;;;;;;;10.77;4.82;;;16.80;99.90;;;;;;5036300;28;20060;-79
2021/07/07 04:24:15;;;;;;;10.75;5.82;;;17.10;99.90;;;;;;5048370;28;20045;-80
2021/07/07 04:26:42;;;;;;;8.85;4.72;;;17.20;99.90;;;;;;5051147;28;20076;-78
2021/07/07 04:29:09;;;;;;;18.15;6.13;;;17.20;99.90;;;;;;5050053;28;20073;-79
2021/07/07 04:31:37;;;;;;;13.93;4.82;;;17.00;99.90;;;;;;5045529;28;20057;-80
2021/07/07 04:34:05;;;;;;;11.05;5.45;;;16.90;99.90;;;;;;5039510;28;20499;-78
2021/07/07 04:36:32;;;;;;;10.82;5.50;;;16.80;99.90;;;;;;5043856;28;20104;-81
2021/07/07 04:39:00;;;;;;;18.02;5.47;;;16.60;99.90;;;;;;5048484;28;20101;-81
2021/07/07 04:41:27;;;;;;;14.73;5.47;;;16.40;99.90;;;;;;5044899;28;20525;-80
2021/07/07 04:43:55;;;;;;;11.75;4.90;;;16.30;99.90;;;;;;5035791;28;20128;-82
2021/07/07 04:46:21;;;;;;;12.18;5.25;;;16.30;99.90;;;;;;5036087;28;20449;-80
2021/07/07 04:48:50;;;;;;;15.45;5.28;;;16.40;99.90;;;;;;5036295;28;20085;-80
2021/07/07 04:51:17;;;;;;;9.25;5.28;;;16.40;99.90;;;;;;5035113;28;20105;-80
2021/07/07 04:53:44;;;;;;;12.95;6.43;;;16.40;99.90;;;;;;5036389;28;20109;-80
2021/07/07 04:56:11;;;;;;;10.45;5.38;;;16.40;99.90;;;;;;5038082;28;20076;-81
2021/07/07 04:58:40;;;;;;;9.55;4.55;;;16.60;99.90;;;;;;5038293;28;20109;-80
2021/07/07 05:01:06;;;;;;;12.05;4.95;;;16.80;99.90;;;;;;5037962;28;20088;-80
2021/07/07 05:03:33;;;;;;;15.65;4.90;;;17.00;99.90;;;;;;5038616;28;20092;-80
2021/07/07 05:06:02;;;;;;;10.13;4.50;;;17.30;99.90;;;;;;5037109;28;20129;-79
2021/07/07 05:08:28;;;;;;;13.40;5.00;;;17.60;99.90;;;;;;5037779;28;20425;-80
2021/07/07 05:10:56;;;;;;;9.35;4.57;;;17.70;99.90;;;;;;5036877;28;20049;-79
2021/07/07 05:13:23;;;;;;;11.80;4.80;;;17.80;99.90;;;;;;5036526;28;20060;-80
2021/07/07 05:15:52;;;;;;;13.80;5.38;;;17.70;99.90;;;;;;5037153;28;20097;-82
2021/07/07 05:18:19;;;;;;;10.80;4.72;;;17.60;99.90;;;;;;5037337;28;20426;-79
2021/07/07 05:20:47;;;;;;;17.58;5.68;;;17.50;99.90;;;;;;5037605;28;20140;-81
2021/07/07 05:23:15;;;;;;;11.60;5.18;;;17.50;99.90;;;;;;5040293;28;20088;-79
2021/07/07 05:25:42;;;;;;;16.92;5.40;;;17.50;99.90;;;;;;5040376;28;20096;-81
2021/07/07 05:28:11;;;;;;;13.55;4.85;;;17.80;99.90;;;;;;5039685;28;20407;-82
2021/07/07 05:30:38;;;;;;;7.43;4.40;;;18.60;99.90;;;;;;5036658;28;20648;-79
2021/07/07 05:33:07;;;;;;;8.98;4.45;;;19.40;99.90;;;;;;5035735;28;20136;-80
2021/07/07 05:35:34;;;;;;;7.90;4.13;;;19.90;99.90;;;;;;5036086;28;20047;-81
2021/07/07 05:38:01;;;;;;;9.45;4.80;;;20.20;99.90;;;;;;5036666;28;20049;-81
2021/07/07 05:40:29;;;;;;;8.85;3.95;;;20.20;99.90;;;;;;5037442;28;20137;-81
2021/07/07 05:42:57;;;;;;;11.73;4.78;;;20.10;99.90;;;;;;5036922;28;20083;-81
2021/07/07 05:45:26;;;;;;;9.30;4.63;;;19.90;99.90;;;;;;5037130;28;20075;-81
2021/07/07 05:47:54;;;;;;;10.95;4.97;;;19.80;99.90;;;;;;5037949;28;20045;-81
2021/07/07 05:50:22;;;;;;;9.77;4.78;;;19.70;99.90;;;;;;5038069;28;20056;-81
2021/07/07 05:52:49;;;;;;;9.00;4.57;;;19.60;99.90;;;;;;5037456;28;20076;-81
2021/07/07 05:55:17;;;;;;;13.05;4.85;;;19.50;99.90;;;;;;5036728;28;20109;-81
2021/07/07 05:57:45;;;;;;;9.00;4.28;;;19.60;99.90;;;;;;5038241;28;20511;-83
2021/07/07 06:00:14;;;;;;;10.65;4.95;;;19.50;99.90;;;;;;5038028;28;20073;-83
2021/07/07 06:02:43;;;;;;;9.52;4.53;;;19.60;99.90;;;;;;5040363;28;20112;-84
2021/07/07 06:05:11;;;;;;;9.68;4.25;;;19.60;99.90;;;;;;5044974;28;20087;-85
2021/07/07 06:07:39;;;;;;;6.93;4.20;;;19.50;99.90;;;;;;5050764;28;20045;-83
2021/07/07 06:10:07;;;;;;;7.50;4.10;;;19.70;99.90;;;;;;5047672;28;20077;-82
2021/07/07 06:12:34;;;;;;;10.00;4.30;;;20.20;99.90;;;;;;5047276;28;20056;-84
2021/07/07 06:15:03;;;;;;;9.85;3.95;;;20.80;99.90;;;;;;5045290;28;20140;-82
2021/07/07 06:17:30;;;;;;;10.27;4.13;;;21.50;99.90;;;;;;5046458;28;20081;-81
2021/07/07 06:19:57;;;;;;;10.48;4.22;;;21.70;99.90;;;;;;5047056;28;20132;-82
2021/07/07 06:22:24;;;;;;;8.80;4.13;;;21.60;99.90;;;;;;5045643;28;20052;-85
2021/07/07 06:24:51;;;;;;;11.27;4.35;;;21.40;99.90;;;;;;5047904;28;20133;-81
2021/07/07 06:27:18;;;;;;;9.98;4.25;;;21.20;99.90;;;;;;5047716;28;20049;-82
2021/07/07 06:29:44;;;;;;;10.65;4.50;;;21.10;99.90;;;;;;5046841;28;20087;-83
2021/07/07 06:32:14;;;;;;;10.10;4.93;;;20.90;99.90;;;;;;5048729;28;20041;-82
2021/07/07 06:34:40;;;;;;;14.70;5.35;;;20.90;99.90;;;;;;5046939;28;20049;-83
2021/07/07 06:37:09;;;;;;;11.18;4.57;;;20.80;99.90;;;;;;5047598;28;20049;-80
2021/07/07 06:39:36;;;;;;;10.27;4.50;;;20.80;99.90;;;;;;5044440;28;20057;-80
2021/07/07 06:42:04;;;;;;;8.80;4.38;;;20.80;99.90;;;;;;5043877;28;20077;-82
2021/07/07 06:44:31;;;;;;;8.75;4.13;;;20.90;99.90;;;;;;5045461;28;20132;-83
2021/07/07 06:46:58;;;;;;;11.40;4.55;;;21.00;99.90;;;;;;5045940;28;20076;-81
2021/07/07 06:49:26;;;;;;;13.10;4.93;;;20.90;99.90;;;;;;5045195;28;20136;-80
2021/07/07 06:51:53;;;;;;;11.98;4.68;;;21.10;99.90;;;;;;5044869;28;20121;-85
2021/07/07 06:54:20;;;;;;;9.98;4.90;;;21.10;99.90;;;;;;5044686;28;20077;-82
2021/07/07 06:56:46;;;;;;;10.23;4.47;;;21.10;99.90;;;;;;5044192;28;20088;-82
2021/07/07 06:59:13;;;;;;;17.38;5.07;;;21.10;99.90;;;;;;5044267;28;20080;-83
2021/07/07 07:01:40;;;;;;;11.85;4.90;;;21.70;99.90;;;;;;5045012;28;20049;-81
2021/07/07 07:04:07;;;;;;;13.27;4.50;;;22.00;99.90;;;;;;5044318;28;20072;-81
2021/07/07 07:06:36;;;;;;;12.05;4.63;;;22.20;99.90;;;;;;5044950;28;20041;-80
2021/07/07 07:09:04;;;;;;;11.07;4.60;;;22.30;99.90;;;;;;5046010;28;20113;-81
2021/07/07 07:11:31;;;;;;;7.05;4.10;;;22.10;99.90;;;;;;5045248;28;20414;-83
2021/07/07 07:13:58;;;;;;;10.85;4.50;;;22.00;99.90;;;;;;5045618;28;20049;-82
2021/07/07 07:16:25;;;;;;;7.90;4.20;;;21.90;99.90;;;;;;5043499;28;20417;-82
2021/07/07 07:18:52;;;;;;;10.40;4.75;;;21.90;99.90;;;;;;5046187;28;20084;-80
2021/07/07 07:21:21;;;;;;;13.27;4.30;;;22.10;99.90;;;;;;5045782;28;20096;-82
2021/07/07 07:23:49;;;;;;;10.18;3.72;;;22.70;99.90;;;;;;5047855;28;20045;-82
2021/07/07 07:26:17;;;;;;;8.82;4.10;;;23.90;99.90;;;;;;5046861;28;20110;-83
2021/07/07 07:28:44;;;;;;;8.05;3.88;;;24.80;99.90;;;;;;5045761;28;20103;-83
2021/07/07 07:31:10;;;;;;;8.50;4.35;;;25.70;99.90;;;;;;5049580;28;20083;-81
2021/07/07 07:33:37;;;;;;;10.88;4.75;;;26.50;99.90;;;;;;5049104;28;20057;-82
2021/07/07 07:36:05;;;;;;;11.45;4.40;;;27.00;99.90;;;;;;5049788;28;20053;-83
2021/07/07 07:38:37;;;;;;;12.85;4.80;;;27.40;99.90;;;;;;5052718;28;20053;-81
2021/07/07 07:41:06;;;;;;;10.40;3.88;;;27.60;99.90;;;;;;5050889;28;20057;-82
2021/07/07 07:43:35;;;;;;;9.10;3.92;;;27.50;99.90;;;;;;5052578;28;20080;-82
2021/07/07 07:46:02;;;;;;;7.07;4.22;;;27.70;99.90;;;;;;5052756;28;20049;-81
2021/07/07 07:48:29;;;;;;;12.23;4.32;;;27.90;99.90;;;;;;5052423;28;20059;-82
2021/07/07 07:51:00;;;;;;;11.02;4.15;;;27.80;99.90;;;;;;5052403;28;20092;-80
2021/07/07 07:53:27;;;;;;;8.88;4.35;;;27.80;99.90;;;;;;5049573;28;20068;-82
2021/07/07 07:55:54;;;;;;;13.45;4.60;;;27.30;99.90;;;;;;5052159;28;20048;-81
2021/07/07 07:58:22;;;;;;;10.32;4.43;;;27.20;99.90;;;;;;5053354;28;20072;-81
2021/07/07 08:00:50;;;;;;;7.00;4.20;;;27.20;99.90;;;;;;5053036;28;20057;-81
2021/07/07 08:03:20;;;;;;;12.00;4.65;;;27.70;99.90;;;;;;5053391;28;20073;-82
2021/07/07 08:05:47;;;;;;;10.50;4.55;;;28.00;99.90;;;;;;5052780;28;20091;-79
2021/07/07 08:08:14;;;;;;;7.32;4.32;;;28.20;99.90;;;;;;5054140;28;20045;-83
2021/07/07 08:10:41;;;;;;;9.60;4.45;;;27.50;99.90;;;;;;5054655;28;20034;-83
2021/07/07 08:13:08;;;;;;;11.35;4.15;;;27.60;99.90;;;;;;5055349;28;20060;-83
2021/07/07 08:15:39;;;;;;;7.07;3.60;;;27.60;99.90;;;;;;5056660;28;20083;-83
2021/07/07 08:18:06;;;;;;;8.00;3.83;;;28.20;99.90;;;;;;5056801;28;20049;-82
2021/07/07 08:20:36;;;;;;;8.07;3.72;;;28.40;99.90;;;;;;5056293;28;20072;-83
2021/07/07 08:23:06;;;;;;;7.05;4.00;;;28.60;99.90;;;;;;5053707;28;20118;-83
2021/07/07 08:25:37;;;;;;;10.25;4.00;;;28.80;99.90;;;;;;5033416;28;20033;-82
2021/07/07 08:28:05;;;;;;;11.77;4.32;;;28.50;99.90;;;;;;5024870;28;20057;-83
2021/07/07 08:30:32;;;;;;;10.90;3.92;;;28.00;99.90;;;;;;5032721;28;20034;-83
2021/07/07 08:33:08;;;;;;;10.75;3.75;;;27.60;99.90;;;;;;5025030;28;20050;-83
2021/07/07 08:35:37;;;;;;;9.68;3.88;;;28.00;99.90;;;;;;5026848;28;20043;-82
2021/07/07 08:38:04;;;;;;;7.95;3.78;;;28.50;99.90;;;;;;5014747;28;20049;-83
2021/07/07 08:40:31;;;;;;;7.93;3.72;;;29.00;99.90;;;;;;5015628;28;20054;-80
2021/07/07 08:42:58;;;;;;;12.27;4.57;;;29.40;99.90;;;;;;5011376;28;20046;-84
2021/07/07 08:45:25;;;;;;;16.40;4.55;;;29.40;99.90;;;;;;5012850;28;20046;-83
2021/07/07 08:47:53;;;;;;;8.07;3.58;;;29.50;99.90;;;;;;5014841;28;20069;-81
2021/07/07 08:50:23;;;;;;;7.40;3.25;;;29.40;99.90;;;;;;5022497;28;20057;-82
2021/07/07 08:52:51;;;;;;;8.10;3.20;;;29.40;99.90;;;;;;5024223;28;20046;-81
2021/07/07 08:55:19;;;;;;;6.70;3.00;;;29.30;99.90;;;;;;5014453;28;20078;-82
2021/07/07 08:57:46;;;;;;;7.22;3.22;;;28.90;99.90;;;;;;5012839;28;20057;-80
2021/07/07 09:00:16;;;;;;;7.43;3.35;;;29.00;99.90;;;;;;5013144;28;20050;-81
2021/07/07 09:02:51;;;;;;;7.63;3.58;;;28.50;99.90;;;;;;5011463;28;20122;-83
2021/07/07 09:05:18;;;;;;;8.43;3.15;;;28.10;99.90;;;;;;5012273;28;20058;-79
2021/07/07 09:07:49;;;;;;;7.57;3.33;;;27.80;99.90;;;;;;5012247;28;20073;-83
2021/07/07 09:10:18;;;;;;;6.45;3.03;;;27.80;99.90;;;;;;5011636;28;20085;-81
2021/07/07 09:12:45;;;;;;;8.48;3.00;;;28.10;99.90;;;;;;5009597;28;20046;-79
2021/07/07 09:15:15;;;;;;;8.15;3.15;;;28.40;99.90;;;;;;5010356;28;20486;-81
2021/07/07 09:17:48;;;;;;;5.90;3.00;;;28.80;99.90;;;;;;5013275;28;20065;-81
2021/07/07 09:20:25;;;;;;;9.15;2.97;;;29.10;99.90;;;;;;5016331;28;20055;-82
2021/07/07 09:23:15;;;;;;;9.32;3.50;;;29.50;99.90;;;;;;5013671;28;20114;-79
2021/07/07 09:28:36;;;;;;;7.68;3.25;;;28.80;99.90;;;;;;5009122;28;20054;-81
2021/07/07 09:31:35;;;;;;;10.75;3.30;;;28.90;99.90;;;;;;5009678;28;20077;-81
2021/07/07 09:34:16;;;;;;;9.40;3.60;;;29.20;99.90;;;;;;5009284;28;20089;-81
2021/07/07 09:36:45;;;;;;;8.15;3.22;;;29.30;99.90;;;;;;5010115;28;20054;-80
2021/07/07 09:39:15;;;;;;;6.75;3.33;;;29.30;99.90;;;;;;5009146;28;20053;-80
2021/07/07 09:41:42;;;;;;;16.50;4.47;;;29.40;99.90;;;;;;5009032;28;20423;-82
2021/07/07 09:44:10;;;;;;;5.78;3.03;;;29.30;99.90;;;;;;5010410;28;20054;-79
2021/07/07 09:46:38;;;;;;;9.63;3.30;;;28.80;99.90;;;;;;5010557;28;20517;-80
2021/07/07 09:49:05;;;;;;;5.50;3.28;;;28.40;99.90;;;;;;5010518;28;20062;-81
2021/07/07 09:51:33;;;;;;;7.05;3.45;;;28.00;99.90;;;;;;5009826;28;20090;-80
2021/07/07 09:54:02;;;;;;;6.30;3.17;;;27.60;99.90;;;;;;5009292;28;20054;-82
2021/07/07 09:56:32;;;;;;;6.18;3.17;;;28.00;99.90;;;;;;5013383;28;20038;-81
2021/07/07 09:58:59;;;;;;;7.10;3.17;;;28.20;99.90;;;;;;5012330;28;20050;-80
2021/07/07 10:06:59;;;;;;;10.93;3.70;;;27.90;99.90;;;;;;4996198;28;20039;-80
2021/07/07 10:16:57;;;;;;;9.95;3.80;;;27.40;99.90;;;;;;4905604;29;20092;-79
2021/07/07 10:46:05;;;;;;;7.78;3.22;;;27.10;99.90;;;;;;4997544;28;20054;-81
2021/07/07 10:49:39;;;;;;;7.18;3.15;;;27.00;99.90;;;;;;5000635;28;20086;-80
2021/07/07 10:52:39;;;;;;;8.00;3.03;;;27.10;99.90;;;;;;4944313;29;20413;-80
2021/07/07 10:55:18;;;;;;;6.90;3.25;;;27.00;99.90;;;;;;4941109;29;20784;-80
2021/07/07 10:58:26;;;;;;;11.20;3.35;;;26.90;99.90;;;;;;5006463;28;20073;-79
2021/07/07 11:00:58;;;;;;;6.97;3.63;;;26.80;99.90;;;;;;5008021;28;20081;-80
2021/07/07 11:03:39;;;;;;;8.00;3.33;;;26.70;99.90;;;;;;5011225;28;20042;-80
2021/07/07 11:06:38;;;;;;;5.60;3.30;;;26.60;99.90;;;;;;5007407;28;20104;-79
2021/07/07 11:09:12;;;;;;;7.68;3.55;;;26.60;99.90;;;;;;4999953;28;20054;-79
2021/07/07 11:14:34;;;;;;;5.18;3.10;;;26.50;99.90;;;;;;4997001;28;20506;-80
2021/07/07 11:23:05;;;;;;;4.55;3.00;;;26.50;99.90;;;;;;4926215;29;20048;-81
2021/07/07 11:25:40;;;;;;;7.88;3.38;;;26.50;99.90;;;;;;4999056;28;20121;-80
2021/07/07 11:28:11;;;;;;;4.15;3.03;;;26.30;99.90;;;;;;5001440;28;20093;-78
2021/07/07 11:34:36;;;;;;;5.85;3.30;;;26.40;99.90;;;;;;5057147;23;20096;-80
2021/07/07 11:40:19;;;;;;;7.65;3.80;;;26.50;99.90;;;;;;5021848;28;20053;-80
2021/07/07 11:42:58;;;;;;;6.65;3.40;;;26.50;99.90;;;;;;5022275;28;20463;-82
2021/07/07 11:45:26;;;;;;;6.18;3.50;;;26.50;99.90;;;;;;5017918;28;20077;-79
2021/07/07 11:47:59;;;;;;;6.85;3.25;;;26.40;99.90;;;;;;5020801;28;20049;-79
2021/07/07 11:50:30;;;;;;;;;;;26.30;99.90;;;;;;5017235;28;20049;-80
2021/07/07 11:53:08;;;;;;;4.90;3.47;;;26.30;99.90;;;;;;5020740;28;19989;-80
2021/07/07 11:56:07;;;;;;;6.32;3.40;;;26.10;99.90;;;;;;5010042;28;20050;-82
2021/07/07 11:58:43;;;;;;;11.20;3.67;;;25.90;99.90;;;;;;5023004;28;20057;-80
2021/07/07 12:01:15;;;;;;;7.15;3.60;;;25.80;99.90;;;;;;5025883;28;20042;-79
2021/07/07 12:03:42;;;;;;;8.43;3.53;;;25.80;99.90;;;;;;5026331;28;20053;-82
2021/07/07 12:06:14;;;;;;;10.18;3.70;;;25.80;99.90;;;;;;5026481;28;20045;-80
2021/07/07 12:08:54;;;;;;;8.35;3.60;;;25.80;99.90;;;;;;5013959;28;20117;-81
2021/07/07 12:12:18;;;;;;;8.20;3.45;;;25.80;99.90;;;;;;5020309;28;20081;-80
2021/07/07 12:15:13;;;;;;;8.43;3.40;;;25.90;99.90;;;;;;4952823;29;20051;-82
2021/07/07 12:18:20;;;;;;;4.43;3.58;;;25.80;99.90;;;;;;5019420;28;20457;-81
2021/07/07 12:27:00;;;;;;;7.85;3.35;;;25.90;99.90;;;;;;5015708;28;20076;-82
2021/07/07 12:29:28;;;;;;;8.45;4.18;;;26.10;99.90;;;;;;5019477;28;20052;-82
2021/07/07 12:32:02;;;;;;;8.90;3.70;;;26.10;99.90;;;;;;5019609;28;20046;-81
2021/07/07 12:34:42;;;;;;;9.35;3.85;;;26.10;99.90;;;;;;5019013;28;20076;-81
2021/07/07 12:37:11;;;;;;;6.68;3.55;;;26.00;99.90;;;;;;5020936;28;20046;-80
2021/07/07 12:39:46;;;;;;;10.07;3.88;;;25.80;99.90;;;;;;5022563;28;20070;-83
2021/07/07 12:42:15;;;;;;;5.13;3.67;;;25.60;99.90;;;;;;5023489;28;20053;-81
2021/07/07 12:44:49;;;;;;;8.13;3.58;;;25.60;99.90;;;;;;5026347;28;20056;-81
2021/07/07 12:47:19;;;;;;;8.07;3.70;;;25.50;99.90;;;;;;5021578;28;20103;-82
2021/07/07 12:49:51;;;;;;;7.60;3.60;;;25.40;99.90;;;;;;5024127;28;20045;-83
2021/07/07 12:52:26;;;;;;;9.20;3.63;;;25.20;99.90;;;;;;5014788;28;20078;-81
2021/07/07 12:55:06;;;;;;;9.20;3.70;;;25.20;99.90;;;;;;5013890;28;20191;-81
2021/07/07 12:58:01;;;;;;;8.70;4.05;;;25.00;99.90;;;;;;5010215;28;20498;-80
2021/07/07 13:00:41;;;;;;;7.80;3.47;;;25.10;99.90;;;;;;4996286;28;20120;-79
2021/07/07 13:03:11;;;;;;;6.88;4.05;;;25.30;99.90;;;;;;5036819;28;20049;-81
2021/07/07 13:05:40;;;;;;;8.55;3.47;;;25.60;99.90;;;;;;5024422;28;20042;-79
2021/07/07 13:08:08;;;;;;;5.53;3.38;;;26.00;99.90;;;;;;5018687;28;20050;-81
2021/07/07 13:10:39;;;;;;;5.35;3.25;;;26.30;99.90;;;;;;5014166;28;20149;-79
2021/07/07 13:13:27;;;;;;;5.05;3.30;;;26.50;99.90;;;;;;5030348;28;20095;-79
2021/07/07 13:16:19;;;;;;;6.68;3.40;;;26.70;99.90;;;;;;5027384;28;20057;-80
2021/07/07 13:18:58;;;;;;;5.03;3.33;;;26.70;99.90;;;;;;5005025;28;20039;-80
2021/07/07 13:21:39;;;;;;;4.95;3.40;;;26.70;99.90;;;;;;5015760;28;20203;-78
2021/07/07 13:24:08;;;;;;;11.13;4.18;;;26.50;99.90;;;;;;5013736;28;20096;-78
2021/07/07 13:26:41;;;;;;;5.72;3.20;;;26.40;99.90;;;;;;5014198;28;20572;-78
2021/07/07 13:29:20;;;;;;;5.97;3.47;;;26.40;99.90;;;;;;5014429;28;20060;-77
2021/07/07 13:31:58;;;;;;;6.18;3.38;;;26.20;99.90;;;;;;5017260;28;20084;-80
2021/07/07 13:34:27;;;;;;;5.30;3.25;;;26.00;99.90;;;;;;5021583;28;20505;-79
2021/07/07 13:36:54;;;;;;;7.60;3.58;;;25.90;99.90;;;;;;5022944;28;20057;-80
2021/07/07 13:39:22;;;;;;;6.50;3.15;;;25.90;99.90;;;;;;5021321;28;20526;-81
2021/07/07 13:41:52;;;;;;;5.75;3.40;;;26.00;99.90;;;;;;5024341;28;20049;-81
2021/07/07 13:44:19;;;;;;;6.25;3.28;;;26.20;99.90;;;;;;5023922;28;20558;-80
2021/07/07 13:46:46;;;;;;;9.57;3.75;;;26.30;99.90;;;;;;5017939;28;20050;-78
2021/07/07 13:49:13;;;;;;;7.68;3.20;;;26.30;99.90;;;;;;5014140;28;20114;-78
2021/07/07 13:51:41;;;;;;;6.68;3.30;;;26.40;99.90;;;;;;5016529;28;20042;-78
2021/07/07 13:54:08;;;;;;;4.22;3.25;;;26.40;99.90;;;;;;5014126;28;20136;-79
2021/07/07 13:56:35;;;;;;;8.02;3.67;;;26.50;99.90;;;;;;5013716;28;20053;-78
2021/07/07 13:59:02;;;;;;;6.22;3.33;;;26.60;99.90;;;;;;5013293;28;20160;-77
2021/07/07 14:01:29;;;;;;;8.43;3.92;;;26.70;99.90;;;;;;5013137;28;20081;-78